首页
METAR-TAF:

METAR-TAF

机场 :

恩德培国际机场

恩德培, 乌干达

纬度: 00-03N, 经度: 032-27E, 海拔: 1155米

当前天气观测

该预报发布于48分钟前的10:00 UTC
风速5节,风向
温度 25°C
湿度 74%
气压 1022 hPa
能见度10公里或以上
少量云层高于2300英尺
少量云层高于2500英尺, 积雨云.

METAR: HUEN 231000Z 18005KT 9999 FEW023 FEW025CB 25/20 Q1022

时间: 13:48 (10:48 UTC)

预报

该预报发布于5小时和48分钟前的05:00 UTC
预报有效从23日的 06点(UTC)到 24日的 12点(UTC)
风速10节,风向北转东北
能见度10公里或以上
少量云层高于2300英尺
少量云层高于2500英尺, 积雨云.
短暂存在
从 23日的 10点(UTC)到 23日的 12点(UTC)
风速8节,风向多变
能見度: 9000
散云层高于1900英尺
少量云层高于2100英尺, 积雨云.
雷暴, (小
成为
从 24日的 05点(UTC)到 24日的 09点(UTC)
风速12节,风向多变
能見度: 8000
散云层高于1800英尺
少量云层高于2000英尺, 积雨云.
多云层高于10000英尺
雷暴, 雨,

TAF: HUEN 230500Z 2306/2412 02010KT 9999 FEW023 FEW025CB TEMPO 2310/2312 VRB08KT 9000 -TS SCT019 FEW021CB BECMG 2405/2409 VRB12KT 8000 TSRA SCT018 FEW020CB BKN100

超过4000个机场的气象观测和天气预报(METAR&TAF报告)。

可查询的气象台以黄色和红色小点在地图上表示。

将鼠标移到小点上方,可查看气象台名称。

然后点击查看天气观测和预报。

如需切换地图:点击带黑十字的绿色按钮放大地图;点击带横线的绿色按钮缩小地图;或者点击绿色箭头查看邻近地区的地图。


METAR-TAF: